Time;durP1;ratioP1;P1;durP2;ratioP2;P2;SDS_P1;SDS_P2;PMS_P1;PMS_P2;Temp;Humidity;BMP_temperature;BMP_pressure;BME280_temperature;BME280_humidity;BME280_pressure;Samples;Min_cycle;Max_cycle;Signal;HPM_P1;HPM_P2
2022/03/11 00:01:14;;;;;;;0.20;0.10;;;;;;;1.29;73.05;100678.88;5014990;28;20464;-48
2022/03/11 00:03:40;;;;;;;0.20;0.10;;;;;;;1.30;73.77;100678.91;5015266;28;20455;-48
2022/03/11 00:06:07;;;;;;;0.30;0.20;;;;;;;1.47;73.33;100677.41;5015394;28;20462;-48
2022/03/11 00:08:34;;;;;;;0.30;0.20;;;;;;;1.39;72.57;100679.06;5011111;28;20507;-48
2022/03/11 00:11:01;;;;;;;0.57;0.57;;;;;;;1.32;72.42;100676.31;5013278;28;20989;-47
2022/03/11 00:13:27;;;;;;;1.80;1.70;;;;;;;1.37;72.72;100677.25;5015504;28;20581;-48
2022/03/11 00:15:54;;;;;;;0.73;0.70;;;;;;;1.34;72.65;100674.59;5015019;28;20996;-48
2022/03/11 00:18:21;;;;;;;0.20;0.20;;;;;;;1.35;73.25;100665.88;5010934;28;20818;-48
2022/03/11 00:20:47;;;;;;;0.20;0.10;;;;;;;1.22;73.75;100669.16;5014765;28;20892;-49
2022/03/11 00:23:14;;;;;;;0.20;0.10;;;;;;;1.25;74.79;100670.13;5015256;28;20527;-48
2022/03/11 00:25:41;;;;;;;0.20;0.10;;;;;;;1.78;72.46;100668.25;5014869;28;20452;-49
2022/03/11 00:28:07;;;;;;;0.20;0.10;;;;;;;1.54;72.77;100674.88;5014994;28;20514;-49
2022/03/11 00:30:34;;;;;;;0.20;0.10;;;;;;;1.14;73.87;100674.28;5014715;28;20500;-48
2022/03/11 00:33:01;;;;;;;0.20;0.10;;;;;;;1.07;74.74;100673.31;5014870;28;20499;-49
2022/03/11 00:35:28;;;;;;;3.30;0.63;;;;;;;1.17;74.77;100672.59;5014911;28;20897;-48
2022/03/11 00:37:55;;;;;;;0.20;0.20;;;;;;;1.52;73.85;100672.25;5014828;28;20961;-48
2022/03/11 00:40:21;;;;;;;0.40;0.40;;;;;;;1.47;73.98;100674.78;5014514;28;20452;-48
2022/03/11 00:42:48;;;;;;;3.30;1.63;;;;;;;1.52;74.92;100671.38;5014809;28;20453;-48
2022/03/11 00:45:14;;;;;;;4.00;1.20;;;;;;;1.59;73.50;100671.47;5013260;28;20976;-49
2022/03/11 00:47:41;;;;;;;0.20;0.10;;;;;;;1.85;74.07;100668.31;5004743;28;20862;-48
2022/03/11 00:50:08;;;;;;;0.20;0.10;;;;;;;1.68;73.59;100665.47;5014105;28;20453;-49
2022/03/11 00:52:35;;;;;;;0.20;0.17;;;;;;;1.88;73.44;100660.47;5014552;28;20449;-48
2022/03/11 00:55:16;;;;;;;0.30;0.20;;;;;;;1.71;72.79;100663.78;4965174;28;20475;-48
2022/03/11 00:57:42;;;;;;;0.20;0.17;;;;;;;1.88;72.94;100660.47;4966943;28;20446;-48
2022/03/11 01:00:10;;;;;;;0.20;0.10;;;;;;;2.22;71.60;100659.16;4961845;28;20482;-47
2022/03/11 01:02:38;;;;;;;0.40;0.40;;;;;;;2.16;71.77;100653.81;4972698;28;20451;-46
2022/03/11 01:05:07;;;;;;;0.30;0.20;;;;;;;1.92;71.85;100652.69;4963821;28;20458;-48
2022/03/11 01:07:34;;;;;;;0.20;0.20;;;;;;;1.89;71.81;100651.75;4966602;28;20451;-48
2022/03/11 01:10:02;;;;;;;0.20;0.10;;;;;;;1.78;72.65;100654.22;4963602;28;20462;-48
2022/03/11 01:12:28;;;;;;;0.20;0.10;;;;;;;1.43;73.86;100659.03;4959684;28;20880;-50
2022/03/11 01:14:55;;;;;;;0.20;0.10;;;;;;;1.28;74.26;100649.22;4962799;28;20627;-48
2022/03/11 01:17:21;;;;;;;0.20;0.10;;;;;;;1.04;74.85;100652.31;4966576;28;20451;-48
2022/03/11 01:19:48;;;;;;;0.30;0.20;;;;;;;1.17;74.72;100649.03;4962595;28;20874;-48
2022/03/11 01:22:15;;;;;;;0.20;0.10;;;;;;;0.99;75.33;100642.66;4966357;28;20503;-48
2022/03/11 01:24:42;;;;;;;1.23;1.23;;;;;;;0.83;75.02;100652.00;4963741;28;20559;-48
2022/03/11 01:27:08;;;;;;;0.30;0.30;;;;;;;0.82;74.92;100645.88;5011277;28;20480;-48
2022/03/11 01:29:35;;;;;;;0.20;0.20;;;;;;;0.68;75.79;100647.34;5013862;28;20445;-48
2022/03/11 01:32:02;;;;;;;0.20;0.10;;;;;;;0.74;75.42;100639.63;5013911;28;20530;-48
2022/03/11 01:34:29;;;;;;;0.20;0.10;;;;;;;0.58;75.72;100651.56;5013676;28;20492;-48
2022/03/11 01:36:56;;;;;;;0.30;0.20;;;;;;;0.52;75.93;100647.94;5013693;28;20456;-48
2022/03/11 01:39:22;;;;;;;0.20;0.10;;;;;;;0.49;76.13;100640.06;5013586;28;20511;-49
2022/03/11 01:41:49;;;;;;;0.50;0.50;;;;;;;0.35;75.95;100638.94;5013396;28;20984;-48
2022/03/11 01:44:20;;;;;;;0.20;0.10;;;;;;;0.40;76.27;100643.38;5013821;28;20531;-49
2022/03/11 01:46:46;;;;;;;0.20;0.10;;;;;;;0.45;76.81;100635.63;5010584;28;20493;-48
2022/03/11 01:49:13;;;;;;;0.20;0.20;;;;;;;0.34;75.85;100630.22;5005578;28;20859;-48
2022/03/11 01:51:42;;;;;;;0.20;0.10;;;;;;;0.33;77.09;100635.41;5013227;28;20473;-48
2022/03/11 01:54:10;;;;;;;0.20;0.20;;;;;;;0.16;77.08;100641.22;5013163;28;20493;-48
2022/03/11 01:56:38;;;;;;;0.20;0.10;;;;;;;0.08;77.57;100629.72;5013065;28;20448;-48
2022/03/11 01:59:06;;;;;;;0.20;0.10;;;;;;;0.01;77.99;100625.25;5013240;28;20499;-49
2022/03/11 02:01:33;;;;;;;0.30;0.27;;;;;;;0.05;78.84;100631.41;5012651;28;20519;-48
2022/03/11 02:04:00;;;;;;;0.20;0.10;;;;;;;0.07;78.29;100624.47;5013035;28;20445;-48
2022/03/11 02:06:28;;;;;;;0.20;0.10;;;;;;;0.00;79.28;100626.09;5012955;28;20448;-49
2022/03/11 02:08:56;;;;;;;0.20;0.10;;;;;;;0.05;79.03;100620.94;5007295;28;20453;-48
2022/03/11 02:11:22;;;;;;;0.30;0.20;;;;;;;0.08;79.41;100619.28;5012970;28;20858;-48
2022/03/11 02:13:55;;;;;;;0.20;0.10;;;;;;;0.09;79.66;100623.66;5012895;28;20538;-48
2022/03/11 02:16:27;;;;;;;0.20;0.10;;;;;;;0.11;79.37;100616.72;5013042;28;20453;-49
2022/03/11 02:18:55;;;;;;;2.00;2.00;;;;;;;0.17;79.64;100618.56;5006906;28;20460;-47
2022/03/11 02:21:23;;;;;;;0.20;0.10;;;;;;;0.38;78.66;100612.84;5013169;28;20534;-48
2022/03/11 02:23:52;;;;;;;0.20;0.10;;;;;;;0.59;79.05;100603.63;5013026;28;20475;-48
2022/03/11 02:26:21;;;;;;;0.20;0.10;;;;;;;1.10;79.79;100602.69;5013125;28;20452;-48
2022/03/11 02:28:50;;;;;;;0.20;0.10;;;;;;;1.79;80.49;100601.00;5012697;28;20872;-49
2022/03/11 02:31:18;;;;;;;0.20;0.10;;;;;;;2.12;79.17;100596.97;5012790;28;20468;-48
2022/03/11 02:33:46;;;;;;;0.53;0.53;;;;;;;2.43;78.44;100593.78;5012607;28;20492;-47
2022/03/11 02:36:12;;;;;;;0.20;0.10;;;;;;;2.48;78.37;100591.22;5012890;28;20448;-48
2022/03/11 02:38:39;;;;;;;0.20;0.10;;;;;;;2.72;77.96;100598.41;5012603;28;20818;-48
2022/03/11 02:41:07;;;;;;;0.20;0.10;;;;;;;2.93;77.22;100593.34;5012593;28;20473;-48
2022/03/11 02:43:33;;;;;;;0.20;0.10;;;;;;;3.17;75.84;100590.88;5012669;28;20810;-48
2022/03/11 02:46:00;;;;;;;8.20;1.20;;;;;;;3.21;75.98;100590.03;5012576;28;20484;-49
2022/03/11 02:48:27;;;;;;;0.20;0.10;;;;;;;3.31;75.65;100592.72;5002195;28;20457;-48
2022/03/11 02:50:54;;;;;;;0.20;0.10;;;;;;;3.48;74.46;100594.56;5012599;28;20508;-49
2022/03/11 02:53:21;;;;;;;0.20;0.10;;;;;;;3.42;74.84;100591.00;4986436;28;20531;-49
2022/03/11 02:55:48;;;;;;;0.30;0.30;;;;;;;3.50;74.22;100602.44;5012422;28;20568;-48
2022/03/11 02:58:14;;;;;;;0.20;0.20;;;;;;;3.50;74.19;100594.56;5012487;28;20448;-48
2022/03/11 03:00:41;;;;;;;0.20;0.13;;;;;;;3.53;74.15;100595.44;5012014;28;20468;-48
2022/03/11 03:03:08;;;;;;;0.20;0.10;;;;;;;3.56;74.34;100591.94;5012635;28;20503;-49
2022/03/11 03:05:34;;;;;;;0.27;0.20;;;;;;;3.59;74.02;100591.97;5012423;28;20453;-48
2022/03/11 03:08:01;;;;;;;2.20;1.63;;;;;;;3.61;74.19;100586.72;5012195;28;20621;-49
2022/03/11 03:10:28;;;;;;;0.20;0.10;;;;;;;3.71;73.40;100594.66;5010214;28;21051;-49
2022/03/11 03:12:54;;;;;;;1.27;1.17;;;;;;;3.84;72.36;100588.59;5016329;28;20444;-50
2022/03/11 03:15:21;;;;;;;0.20;0.10;;;;;;;3.79;71.87;100586.78;5016039;28;20492;-46
2022/03/11 03:17:48;;;;;;;0.27;0.17;;;;;;;3.82;71.93;100586.78;5013153;28;20448;-46
2022/03/11 03:20:15;;;;;;;0.20;0.10;;;;;;;3.94;71.35;100591.22;5015896;28;21012;-47
2022/03/11 03:22:41;;;;;;;0.20;0.10;;;;;;;3.64;72.26;100600.75;5016558;28;20526;-47
2022/03/11 03:25:11;;;;;;;0.30;0.30;;;;;;;3.75;72.79;100592.91;5016299;28;20448;-47
2022/03/11 03:27:38;;;;;;;0.20;0.10;;;;;;;3.55;72.70;100595.44;5016339;28;20475;-47
2022/03/11 03:30:05;;;;;;;0.30;0.27;;;;;;;3.32;72.31;100597.97;5015786;28;20514;-47
2022/03/11 03:32:32;;;;;;;0.20;0.10;;;;;;;2.95;73.43;100594.22;5014924;28;20451;-47
2022/03/11 03:34:59;;;;;;;2.33;2.33;;;;;;;3.32;71.92;100589.22;5015943;28;20520;-46
2022/03/11 03:37:25;;;;;;;0.20;0.10;;;;;;;2.99;72.55;100596.00;5015936;28;20499;-46
2022/03/11 03:39:52;;;;;;;0.20;0.20;;;;;;;2.74;73.37;100594.03;5015691;28;20460;-47
2022/03/11 03:42:18;;;;;;;0.30;0.20;;;;;;;2.66;73.88;100597.50;5015585;28;20469;-47
2022/03/11 03:44:45;;;;;;;0.20;0.10;;;;;;;2.62;74.17;100603.59;5015501;28;20448;-47
2022/03/11 03:47:12;;;;;;;1.03;1.03;;;;;;;2.65;73.96;100597.50;5009804;28;20511;-49
2022/03/11 03:49:38;;;;;;;0.87;0.57;;;;;;;2.23;75.76;100606.72;5012656;28;20456;-49
2022/03/11 03:52:11;;;;;;;0.40;0.40;;;;;;;2.33;75.26;100605.97;5015638;28;20472;-48
2022/03/11 03:54:39;;;;;;;0.30;0.20;;;;;;;2.21;76.21;100597.09;5015560;28;20492;-49
2022/03/11 03:57:07;;;;;;;0.63;0.63;;;;;;;1.85;76.54;100606.28;5015366;28;20448;-48
2022/03/11 03:59:34;;;;;;;0.20;0.20;;;;;;;1.63;76.98;100606.88;5015618;28;20507;-48
2022/03/11 04:02:00;;;;;;;0.20;0.10;;;;;;;1.42;77.74;100600.53;5015017;28;20518;-48
2022/03/11 04:04:27;;;;;;;0.20;0.10;;;;;;;1.28;78.54;100603.81;5015335;28;20452;-49
2022/03/11 04:06:54;;;;;;;0.57;0.20;;;;;;;1.09;79.54;100602.66;5015481;28;20518;-49
2022/03/11 04:09:21;;;;;;;0.20;0.10;;;;;;;1.05;80.55;100606.97;5008611;28;20448;-48
2022/03/11 04:11:47;;;;;;;0.20;0.10;;;;;;;0.85;80.05;100601.44;5015825;28;20514;-52
2022/03/11 04:14:14;;;;;;;0.20;0.10;;;;;;;0.98;80.94;100599.91;5015088;28;20496;-52
2022/03/11 04:16:41;;;;;;;0.20;0.10;;;;;;;0.99;80.66;100601.66;5013254;28;20452;-52
2022/03/11 04:19:08;;;;;;;0.20;0.20;;;;;;;1.01;81.21;100601.69;5013445;28;20604;-52
2022/03/11 04:21:34;;;;;;;4.03;2.17;;;;;;;0.80;80.78;100599.59;5015046;28;20508;-52
2022/03/11 04:24:01;;;;;;;0.20;0.10;;;;;;;1.01;80.23;100609.53;5014742;28;20476;-52
2022/03/11 04:26:28;;;;;;;1.13;1.13;;;;;;;0.92;80.25;100606.75;5014918;28;20448;-52
2022/03/11 04:28:54;;;;;;;0.20;0.10;;;;;;;0.72;81.64;100607.34;5014917;28;20539;-52
2022/03/11 04:31:22;;;;;;;0.20;0.10;;;;;;;0.81;81.06;100610.09;5015102;28;20469;-52
2022/03/11 04:33:48;;;;;;;0.83;0.83;;;;;;;0.89;82.14;100607.59;5014683;28;20492;-52
2022/03/11 04:36:15;;;;;;;0.20;0.20;;;;;;;1.01;81.79;100613.03;5014778;28;20449;-52
2022/03/11 04:38:41;;;;;;;0.20;0.10;;;;;;;0.95;81.11;100615.53;5014569;28;20483;-52
2022/03/11 04:41:08;;;;;;;0.20;0.10;;;;;;;0.73;81.03;100623.91;5014915;28;20534;-52
2022/03/11 04:43:36;;;;;;;0.47;0.47;;;;;;;0.63;80.71;100620.25;5014711;28;20448;-52
2022/03/11 04:46:03;;;;;;;0.20;0.10;;;;;;;0.51;82.18;100617.44;5013542;28;20463;-52
2022/03/11 04:48:31;;;;;;;2.03;1.93;;;;;;;0.29;82.72;100613.56;5004090;28;20511;-52
2022/03/11 04:50:58;;;;;;;0.20;0.10;;;;;;;0.27;82.70;100610.03;5014506;28;20472;-52
2022/03/11 04:53:24;;;;;;;0.30;0.20;;;;;;;0.07;83.24;100603.56;5014413;28;20457;-52
2022/03/11 04:55:51;;;;;;;0.20;0.10;;;;;;;0.16;82.96;100606.38;5014187;28;21055;-52
2022/03/11 04:58:18;;;;;;;0.20;0.10;;;;;;;0.23;82.94;100610.84;5014646;28;20457;-52
2022/03/11 05:00:45;;;;;;;0.20;0.10;;;;;;;0.03;83.99;100614.81;5013808;28;20547;-52
2022/03/11 05:03:12;;;;;;;0.50;0.50;;;;;;;0.00;83.84;100615.66;5014290;28;20452;-52
2022/03/11 05:05:38;;;;;;;0.20;0.10;;;;;;;-0.07;84.46;100611.13;5014390;28;20536;-51
2022/03/11 05:08:05;;;;;;;0.30;0.20;;;;;;;-0.25;84.70;100605.56;5014213;28;20444;-51
2022/03/11 05:10:32;;;;;;;1.90;1.47;;;;;;;-0.02;85.23;100612.09;5008599;28;20485;-51
2022/03/11 05:12:58;;;;;;;0.20;0.10;;;;;;;-0.04;84.37;100616.41;5014408;28;20444;-52
2022/03/11 05:15:26;;;;;;;4.10;1.63;;;;;;;-0.03;85.37;100612.94;5014034;28;20543;-51
2022/03/11 05:17:52;;;;;;;0.20;0.10;;;;;;;-0.09;85.63;100610.25;5010320;28;20532;-51
2022/03/11 05:20:19;;;;;;;0.20;0.10;;;;;;;-0.11;85.37;100609.34;5013913;28;20448;-52
2022/03/11 05:22:46;;;;;;;1.10;1.00;;;;;;;-0.09;85.56;100605.00;5014192;28;20538;-52
2022/03/11 05:25:13;;;;;;;0.20;0.10;;;;;;;-0.24;85.08;100612.56;5013651;28;20444;-51
2022/03/11 05:27:39;;;;;;;0.20;0.10;;;;;;;-0.18;85.56;100613.53;5013709;28;20868;-52
2022/03/11 05:30:07;;;;;;;0.20;0.10;;;;;;;-0.18;85.30;100605.69;5013264;28;21012;-52
2022/03/11 05:32:40;;;;;;;0.20;0.10;;;;;;;0.34;85.13;100601.44;5013470;28;20456;-52
2022/03/11 05:35:07;;;;;;;0.23;0.17;;;;;;;0.01;84.26;100609.56;5013423;28;20546;-52
2022/03/11 05:37:34;;;;;;;0.20;0.10;;;;;;;0.04;84.38;100609.63;5014037;28;20510;-51
2022/03/11 05:40:01;;;;;;;0.20;0.10;;;;;;;-0.01;85.03;100609.50;5013551;28;20482;-51
2022/03/11 05:42:27;;;;;;;0.20;0.20;;;;;;;-0.04;85.43;100608.59;5013459;28;21016;-52
2022/03/11 05:44:54;;;;;;;0.20;0.10;;;;;;;0.21;84.35;100621.25;5013293;28;20480;-52
2022/03/11 05:47:20;;;;;;;0.20;0.10;;;;;;;0.26;85.02;100623.94;5005986;28;20516;-52
2022/03/11 05:49:47;;;;;;;0.20;0.10;;;;;;;0.10;84.79;100621.91;5011057;28;20457;-51
2022/03/11 05:52:14;;;;;;;0.20;0.20;;;;;;;0.17;84.83;100615.97;5013548;28;20503;-52
2022/03/11 05:54:41;;;;;;;0.20;0.10;;;;;;;-0.04;85.92;100619.91;5013450;28;20516;-52
2022/03/11 05:57:09;;;;;;;0.20;0.10;;;;;;;0.03;86.05;100613.09;5013290;28;20456;-51
2022/03/11 05:59:35;;;;;;;0.20;0.10;;;;;;;0.07;85.41;100614.03;5012767;28;20496;-51
2022/03/11 06:02:03;;;;;;;0.20;0.10;;;;;;;-0.06;85.76;100613.78;5012482;28;20472;-52
2022/03/11 06:04:31;;;;;;;0.20;0.17;;;;;;;0.08;85.90;100616.66;5013083;28;20445;-52
2022/03/11 06:06:57;;;;;;;0.20;0.10;;;;;;;0.15;86.09;100615.06;5013259;28;20452;-52
2022/03/11 06:09:24;;;;;;;2.47;0.57;;;;;;;0.23;86.11;100616.06;5006886;28;20597;-52
2022/03/11 06:11:53;;;;;;;0.30;0.20;;;;;;;0.52;84.11;100614.84;5012982;28;20534;-52
2022/03/11 06:14:20;;;;;;;0.20;0.10;;;;;;;0.58;84.36;100625.41;5012509;28;20547;-52
2022/03/11 06:16:46;;;;;;;0.20;0.10;;;;;;;0.48;86.04;100626.09;5009899;28;20504;-52
2022/03/11 06:19:14;;;;;;;0.20;0.10;;;;;;;0.70;84.90;100616.91;5012058;28;20457;-52
2022/03/11 06:21:40;;;;;;;0.40;0.40;;;;;;;0.92;84.57;100622.47;5012941;28;20523;-52
2022/03/11 06:24:07;;;;;;;0.20;0.10;;;;;;;1.04;83.56;100625.28;5012959;28;20448;-52
2022/03/11 06:26:34;;;;;;;0.20;0.10;;;;;;;1.12;83.26;100626.28;5012825;28;20479;-52
2022/03/11 06:29:00;;;;;;;1.20;1.20;;;;;;;1.21;84.00;100628.13;5012500;28;20495;-52
2022/03/11 06:31:27;;;;;;;1.33;1.33;;;;;;;1.08;83.40;100630.56;5012570;28;21458;-52
2022/03/11 06:33:54;;;;;;;2.70;0.90;;;;;;;1.10;83.10;100623.66;5012897;28;20448;-52
2022/03/11 06:36:21;;;;;;;0.30;0.20;;;;;;;1.12;83.92;100631.50;5012589;28;20500;-51
2022/03/11 06:38:47;;;;;;;0.20;0.10;;;;;;;1.19;83.85;100630.72;5012667;28;20453;-52
2022/03/11 06:41:14;;;;;;;0.20;0.20;;;;;;;1.24;84.40;100623.84;5012546;28;20500;-52
2022/03/11 06:43:41;;;;;;;0.47;0.47;;;;;;;1.41;82.87;100622.34;5011514;28;20452;-52
2022/03/11 06:46:07;;;;;;;1.60;1.60;;;;;;;1.38;84.37;100617.06;5012305;28;20480;-52
2022/03/11 06:48:35;;;;;;;0.20;0.10;;;;;;;1.66;82.79;100614.81;5002388;28;20587;-51
2022/03/11 06:51:04;;;;;;;0.20;0.10;;;;;;;1.75;81.62;100620.13;5012208;28;20530;-52
2022/03/11 06:53:32;;;;;;;0.20;0.10;;;;;;;1.95;81.04;100612.53;5012628;28;20455;-52
2022/03/11 06:56:00;;;;;;;0.47;0.43;;;;;;;2.13;80.13;100610.09;5012102;28;20594;-51
2022/03/11 06:58:28;;;;;;;0.43;0.43;;;;;;;2.35;79.42;100626.94;5012210;28;20519;-52
2022/03/11 07:00:54;;;;;;;0.30;0.20;;;;;;;2.62;77.31;100624.59;5011565;28;20830;-52
2022/03/11 07:03:21;;;;;;;0.20;0.10;;;;;;;2.65;76.67;100631.59;5012453;28;20452;-52
2022/03/11 07:05:48;;;;;;;0.20;0.10;;;;;;;2.76;76.39;100629.09;5012251;28;20452;-52
2022/03/11 07:08:15;;;;;;;0.30;0.30;;;;;;;2.98;75.72;100636.25;5010726;28;20483;-52
2022/03/11 07:10:42;;;;;;;0.20;0.10;;;;;;;3.08;75.75;100624.94;5007810;28;20485;-52
2022/03/11 07:13:08;;;;;;;0.30;0.10;;;;;;;3.31;74.26;100629.50;5012443;28;20441;-52
2022/03/11 07:15:38;;;;;;;0.30;0.30;;;;;;;3.25;74.08;100625.06;5012263;28;20840;-50
2022/03/11 07:18:05;;;;;;;0.97;0.97;;;;;;;3.32;73.51;100628.63;5008351;28;20448;-52
2022/03/11 07:20:32;;;;;;;0.20;0.10;;;;;;;3.40;72.46;100635.66;5012004;28;20546;-50
2022/03/11 07:23:18;;;;;;;0.97;0.97;;;;;;;3.39;72.87;100628.66;5011874;28;20455;-51
2022/03/11 07:25:45;;;;;;;0.20;0.20;;;;;;;3.48;72.15;100622.56;5012118;28;20874;-51
2022/03/11 07:28:11;;;;;;;0.20;0.10;;;;;;;3.58;71.20;100628.78;5012144;28;20460;-51
2022/03/11 07:30:38;;;;;;;0.20;0.10;;;;;;;3.71;70.93;100620.94;5011796;28;20974;-51
2022/03/11 07:33:07;;;;;;;1.17;1.17;;;;;;;3.76;70.22;100624.47;5011999;28;20506;-51
2022/03/11 07:35:34;;;;;;;2.67;2.47;;;;;;;3.88;70.11;100628.03;5011827;28;20496;-51
2022/03/11 07:38:00;;;;;;;0.20;0.10;;;;;;;3.89;69.64;100628.03;5011694;28;20965;-52
2022/03/11 07:40:27;;;;;;;0.20;0.20;;;;;;;3.93;69.08;100632.41;5012015;28;20599;-51
2022/03/11 07:42:53;;;;;;;0.93;0.93;;;;;;;4.01;68.84;100637.72;5012012;28;20488;-51
2022/03/11 07:45:21;;;;;;;0.47;0.47;;;;;;;4.07;69.04;100633.34;5011936;28;20510;-51
2022/03/11 07:47:47;;;;;;;0.83;0.83;;;;;;;4.25;68.50;100635.16;5001279;28;20460;-52
2022/03/11 07:50:14;;;;;;;0.20;0.10;;;;;;;4.18;67.76;100635.13;5011714;28;20448;-51
2022/03/11 07:52:41;;;;;;;0.20;0.20;;;;;;;4.32;68.22;100629.03;5011943;28;20452;-52
2022/03/11 07:55:09;;;;;;;0.30;0.20;;;;;;;4.39;66.01;100638.72;5014355;28;20570;-52
2022/03/11 07:57:36;;;;;;;0.20;0.20;;;;;;;4.56;66.71;100633.47;5015528;28;20452;-52
2022/03/11 08:00:06;;;;;;;0.57;0.57;;;;;;;4.44;65.52;100630.81;5015563;28;20711;-52
2022/03/11 08:02:34;;;;;;;0.20;0.10;;;;;;;4.61;66.04;100634.34;5014829;28;20452;-51
2022/03/11 08:05:01;;;;;;;0.20;0.17;;;;;;;4.76;64.88;100636.97;5015686;28;20448;-52
2022/03/11 08:07:27;;;;;;;0.20;0.20;;;;;;;4.79;63.97;100630.84;5015137;28;20455;-52
2022/03/11 08:09:54;;;;;;;4.00;0.77;;;;;;;4.82;64.05;100636.13;5009391;28;20445;-51
2022/03/11 08:12:21;;;;;;;0.20;0.10;;;;;;;4.90;63.17;100623.81;5014949;28;20538;-52
2022/03/11 08:14:47;;;;;;;0.20;0.20;;;;;;;4.94;62.44;100625.59;5015098;28;20914;-51
2022/03/11 08:17:15;;;;;;;0.30;0.20;;;;;;;5.00;61.84;100616.81;5011746;28;20456;-52
2022/03/11 08:19:42;;;;;;;0.40;0.40;;;;;;;5.20;62.55;100622.03;5014967;28;20885;-51
2022/03/11 08:22:11;;;;;;;0.53;0.53;;;;;;;5.38;62.11;100619.38;5014806;28;20472;-52
2022/03/11 08:24:39;;;;;;;0.40;0.40;;;;;;;5.56;62.03;100614.06;5014830;28;21016;-52
2022/03/11 08:27:07;;;;;;;0.20;0.10;;;;;;;5.42;60.40;100615.84;5014836;28;20449;-52
2022/03/11 08:29:34;;;;;;;0.30;0.10;;;;;;;5.70;60.07;100618.41;5014975;28;20489;-51
2022/03/11 08:32:03;;;;;;;0.20;0.10;;;;;;;5.65;58.00;100613.16;5014663;28;20469;-51
2022/03/11 08:34:30;;;;;;;0.20;0.10;;;;;;;5.74;59.23;100610.47;5014613;28;20535;-52
2022/03/11 08:37:17;;;;;;;0.20;0.20;;;;;;;5.61;55.81;100608.75;4990278;28;20480;-52
2022/03/11 08:39:44;;;;;;;0.90;0.90;;;;;;;5.87;57.31;100608.66;5014490;28;20511;-49
2022/03/11 08:42:10;;;;;;;0.53;0.53;;;;;;;5.96;56.43;100602.50;5014722;28;20465;-48
2022/03/11 08:44:37;;;;;;;0.20;0.13;;;;;;;5.99;56.32;100598.09;5014470;28;20449;-48
2022/03/11 08:47:03;;;;;;;0.20;0.10;;;;;;;6.06;55.13;100597.19;5009597;28;20457;-48
2022/03/11 08:49:30;;;;;;;0.27;0.20;;;;;;;6.09;54.55;100605.09;5008769;28;20902;-50
2022/03/11 08:51:57;;;;;;;0.30;0.20;;;;;;;6.06;53.51;100597.19;5014509;28;20468;-49
2022/03/11 08:54:24;;;;;;;2.33;1.70;;;;;;;6.26;54.21;100593.53;5014328;28;20456;-49
2022/03/11 08:56:52;;;;;;;2.70;2.67;;;;;;;6.20;55.00;100591.84;5014337;28;20524;-49
2022/03/11 08:59:19;;;;;;;0.50;0.50;;;;;;;6.13;54.01;100585.69;5014157;28;20932;-48
2022/03/11 09:01:47;;;;;;;0.30;0.20;;;;;;;6.41;54.24;100580.25;5013636;28;20464;-49
2022/03/11 09:04:14;;;;;;;0.30;0.20;;;;;;;6.38;53.33;100586.41;5014180;28;20820;-46
2022/03/11 09:06:41;;;;;;;0.30;0.20;;;;;;;6.29;53.70;100583.84;5013269;28;20452;-46
2022/03/11 09:09:08;;;;;;;0.47;0.47;;;;;;;6.40;53.32;100584.66;5007943;28;20520;-48
2022/03/11 09:11:35;;;;;;;1.03;0.93;;;;;;;6.51;53.07;100584.56;5013751;28;20989;-48
2022/03/11 09:14:02;;;;;;;0.20;0.20;;;;;;;6.50;52.81;100586.34;5014150;28;20511;-49
2022/03/11 09:16:29;;;;;;;2.67;1.60;;;;;;;6.54;52.19;100581.91;5013498;28;21013;-48
2022/03/11 09:18:56;;;;;;;0.20;0.20;;;;;;;6.63;52.46;100578.31;5010164;28;20510;-48
2022/03/11 09:21:22;;;;;;;0.30;0.20;;;;;;;6.76;52.17;100574.69;5013818;28;20510;-48
2022/03/11 09:23:49;;;;;;;0.80;0.80;;;;;;;6.60;52.10;100571.31;5013727;28;20885;-48
2022/03/11 09:26:16;;;;;;;0.23;0.20;;;;;;;6.74;53.24;100572.06;5013616;28;20510;-49
2022/03/11 09:28:43;;;;;;;0.40;0.37;;;;;;;6.75;51.71;100573.81;5013738;28;20867;-49
2022/03/11 09:31:09;;;;;;;0.30;0.20;;;;;;;7.07;51.67;100576.16;5013989;28;20479;-48
2022/03/11 09:33:37;;;;;;;0.30;0.20;;;;;;;7.38;51.67;100571.44;5013671;28;20460;-48
2022/03/11 09:36:07;;;;;;;0.30;0.17;;;;;;;7.10;50.96;100575.25;5014308;28;20493;-47
2022/03/11 09:38:36;;;;;;;0.30;0.17;;;;;;;7.00;50.77;100569.19;5013549;28;20869;-47
2022/03/11 09:41:04;;;;;;;0.20;0.20;;;;;;;7.15;51.36;100576.09;5013929;28;20472;-47
2022/03/11 09:43:31;;;;;;;0.70;0.70;;;;;;;7.09;51.20;100571.72;5013927;28;20449;-48
2022/03/11 09:45:58;;;;;;;0.30;0.30;;;;;;;7.24;51.57;100578.63;5012591;28;20449;-47
2022/03/11 09:48:25;;;;;;;24.27;2.10;;;;;;;7.22;51.74;100566.31;4997613;28;20508;-48
2022/03/11 09:50:52;;;;;;;0.30;0.20;;;;;;;7.31;51.48;100569.75;5004381;28;20503;-48
2022/03/11 09:53:19;;;;;;;0.30;0.20;;;;;;;7.50;51.45;100562.47;5013420;28;20452;-47
2022/03/11 09:55:46;;;;;;;0.30;0.20;;;;;;;7.39;50.35;100574.94;5013175;28;20493;-47
2022/03/11 09:58:13;;;;;;;1.90;1.80;;;;;;;7.37;50.18;100572.31;5013305;28;20814;-49
2022/03/11 10:00:40;;;;;;;0.30;0.30;;;;;;;7.36;50.80;100567.06;5012987;28;20476;-48
2022/03/11 10:03:07;;;;;;;0.30;0.30;;;;;;;7.42;49.50;100569.66;4987793;28;20445;-48
2022/03/11 10:05:48;;;;;;;0.30;0.20;;;;;;;7.58;49.90;100563.28;5013007;28;20805;-48
2022/03/11 10:08:16;;;;;;;0.30;0.20;;;;;;;7.82;50.74;100563.88;5011749;28;20444;-47
2022/03/11 10:10:44;;;;;;;0.30;0.20;;;;;;;7.98;50.18;100574.25;5027343;22;20484;-49
2022/03/11 10:13:12;;;;;;;0.30;0.20;;;;;;;7.95;49.82;100576.06;5022216;28;20506;-47
2022/03/11 10:15:41;;;;;;;0.37;0.33;;;;;;;8.01;49.74;100579.47;5019546;28;20499;-47
2022/03/11 10:18:14;;;;;;;0.30;0.20;;;;;;;7.88;49.14;100574.38;5029016;28;20451;-48
2022/03/11 10:20:41;;;;;;;0.30;0.20;;;;;;;7.96;49.77;100562.81;5019705;28;20452;-47
2022/03/11 10:23:11;;;;;;;0.30;0.20;;;;;;;7.97;48.96;100561.91;5032974;28;20459;-47
2022/03/11 10:25:38;;;;;;;0.30;0.20;;;;;;;8.23;48.64;100555.38;5032858;28;20447;-48
2022/03/11 10:28:08;;;;;;;4.13;1.07;;;;;;;8.11;48.52;100555.53;5032857;28;20482;-48
2022/03/11 10:30:43;;;;;;;0.30;0.20;;;;;;;8.10;48.45;100559.09;5032794;28;20448;-47
2022/03/11 10:33:12;;;;;;;0.30;0.20;;;;;;;8.31;48.75;100567.56;5033103;28;20455;-48
2022/03/11 10:35:47;;;;;;;0.30;0.20;;;;;;;8.30;48.85;100564.94;5031585;28;20582;-48
2022/03/11 10:38:14;;;;;;;0.30;0.20;;;;;;;8.26;48.76;100558.84;5032744;28;20443;-48
2022/03/11 10:40:50;;;;;;;0.30;0.20;;;;;;;8.17;48.60;100555.44;5032911;28;20448;-48
2022/03/11 10:43:18;;;;;;;0.30;0.20;;;;;;;8.47;48.57;100562.06;5034317;28;20481;-47
2022/03/11 10:45:54;;;;;;;0.30;0.23;;;;;;;8.47;48.47;100555.00;5032953;28;20444;-48
2022/03/11 10:48:48;;;;;;;0.30;0.30;;;;;;;8.71;48.88;100547.56;5021655;28;20471;-48
2022/03/11 10:51:32;;;;;;;2.97;1.43;;;;;;;8.83;48.08;100544.72;5032818;28;20518;-48
2022/03/11 10:54:03;;;;;;;0.30;0.20;;;;;;;8.58;48.06;100545.13;5032805;28;20440;-48
2022/03/11 10:56:35;;;;;;;0.30;0.20;;;;;;;8.61;48.20;100544.19;5032702;28;20534;-47
2022/03/11 10:59:06;;;;;;;0.60;0.60;;;;;;;8.77;48.22;100534.19;5032472;28;20487;-47
2022/03/11 11:01:34;;;;;;;1.13;0.70;;;;;;;9.27;46.95;100519.13;5032125;28;20459;-48
2022/03/11 11:04:03;;;;;;;1.17;1.17;;;;;;;9.25;47.39;100520.97;5031873;28;20932;-48
2022/03/11 11:06:30;;;;;;;0.30;0.20;;;;;;;9.06;48.06;100526.63;5032464;28;20506;-48
2022/03/11 11:09:04;;;;;;;2.20;2.10;;;;;;;9.13;46.73;100519.41;5026913;28;20441;-48
2022/03/11 11:11:31;;;;;;;0.30;0.20;;;;;;;9.21;47.13;100517.50;5032411;28;20483;-47
2022/03/11 11:14:05;;;;;;;0.30;0.20;;;;;;;9.16;46.24;100520.22;5032301;28;20451;-49
2022/03/11 11:16:46;;;;;;;0.30;0.20;;;;;;;9.21;46.90;100509.53;5031330;28;20491;-48
2022/03/11 11:19:15;;;;;;;0.43;0.43;;;;;;;9.09;46.76;100507.13;5032563;28;20856;-49
2022/03/11 11:21:48;;;;;;;0.30;0.20;;;;;;;9.20;46.45;100503.38;5032202;28;20468;-48
2022/03/11 11:24:17;;;;;;;0.30;0.20;;;;;;;9.61;46.75;100503.44;5006350;28;20505;-48
2022/03/11 11:26:46;;;;;;;0.40;0.30;;;;;;;9.76;45.33;100508.41;5032432;28;20443;-49
2022/03/11 11:29:18;;;;;;;0.30;0.10;;;;;;;9.38;45.93;100498.59;5033503;28;20865;-48
2022/03/11 11:31:47;;;;;;;0.40;0.37;;;;;;;9.42;45.41;100506.44;5036499;28;20513;-48
2022/03/11 11:34:37;;;;;;;4.30;0.93;;;;;;;9.49;46.17;100496.59;5036375;28;20454;-49
2022/03/11 11:37:06;;;;;;;0.30;0.20;;;;;;;9.66;45.42;100497.09;5035892;28;20490;-49